createdAt,value
2023-01-11T00:00:45.544Z,0.68
2023-01-11T00:03:12.600Z,0.82
2023-01-11T00:05:41.476Z,0.77
2023-01-11T00:08:09.619Z,0.76
2023-01-11T00:10:36.623Z,0.49
2023-01-11T00:13:04.133Z,0.34
2023-01-11T00:15:31.240Z,0.58
2023-01-11T00:17:57.957Z,0.56
2023-01-11T00:20:25.033Z,0.61
2023-01-11T00:22:51.768Z,0.66
2023-01-11T00:25:18.440Z,0.43
2023-01-11T00:27:47.209Z,0.35
2023-01-11T00:30:13.970Z,0.37
2023-01-11T00:32:40.573Z,0.47
2023-01-11T00:35:07.984Z,0.23
2023-01-11T00:37:34.772Z,0.38
2023-01-11T00:40:01.467Z,0.40
2023-01-11T00:42:46.977Z,0.38
2023-01-11T00:45:32.916Z,0.45
2023-01-11T00:48:04.943Z,0.56
2023-01-11T00:50:36.941Z,0.48
2023-01-11T00:53:04.530Z,0.60
2023-01-11T00:55:32.147Z,0.53
2023-01-11T00:57:59.150Z,0.43
2023-01-11T01:00:27.224Z,0.43
2023-01-11T01:02:54.235Z,0.66
2023-01-11T01:05:21.117Z,0.43
2023-01-11T01:07:48.304Z,0.52
2023-01-11T01:10:16.691Z,0.49
2023-01-11T01:13:01.699Z,0.52
2023-01-11T01:15:29.269Z,0.43
2023-01-11T01:17:56.295Z,0.69
2023-01-11T01:20:24.573Z,0.59
2023-01-11T01:22:52.024Z,0.29
2023-01-11T01:25:19.146Z,0.30
2023-01-11T01:27:45.861Z,0.37
2023-01-11T01:30:12.850Z,0.30
2023-01-11T01:32:39.555Z,0.48
2023-01-11T01:35:06.588Z,0.38
2023-01-11T01:37:33.217Z,0.46
2023-01-11T01:39:59.794Z,0.54
2023-01-11T01:42:26.477Z,0.43
2023-01-11T01:44:57.991Z,0.43
2023-01-11T01:47:30.528Z,0.37
2023-01-11T01:50:01.390Z,0.59
2023-01-11T01:52:29.469Z,0.44
2023-01-11T01:55:00.926Z,0.42
2023-01-11T01:57:34.086Z,0.58
2023-01-11T02:00:06.145Z,0.65
2023-01-11T02:02:33.472Z,0.51
2023-01-11T02:05:00.239Z,0.67
2023-01-11T02:07:31.860Z,0.66
2023-01-11T02:10:08.112Z,0.85
2023-01-11T02:12:51.877Z,0.88
2023-01-11T02:15:21.487Z,0.86
2023-01-11T02:17:48.204Z,0.98
2023-01-11T02:20:30.129Z,0.71
2023-01-11T02:23:17.989Z,0.78
2023-01-11T02:26:07.594Z,0.83
2023-01-11T02:28:56.039Z,0.98
2023-01-11T02:31:48.947Z,1.08
2023-01-11T02:34:43.916Z,1.21
2023-01-11T02:37:13.503Z,1.14
2023-01-11T02:39:59.184Z,0.98
2023-01-11T02:42:57.349Z,1.02
2023-01-11T02:45:29.792Z,1.23
2023-01-11T02:48:21.847Z,1.28
2023-01-11T02:51:30.355Z,1.26
2023-01-11T02:54:02.750Z,0.93
2023-01-11T02:56:33.685Z,1.11
2023-01-11T02:59:01.511Z,1.05
2023-01-11T03:01:28.193Z,1.09
2023-01-11T03:03:55.213Z,1.27
2023-01-11T03:06:28.727Z,1.24
2023-01-11T03:09:01.229Z,1.28
2023-01-11T03:12:08.089Z,1.22
2023-01-11T03:14:40.369Z,1.27
2023-01-11T03:17:31.586Z,1.34
2023-01-11T03:20:14.902Z,1.33
2023-01-11T03:22:47.239Z,1.46
2023-01-11T03:25:35.861Z,1.36
2023-01-11T03:28:06.122Z,1.46
2023-01-11T03:30:40.427Z,1.49
2023-01-11T03:33:13.728Z,1.42
2023-01-11T03:36:13.851Z,1.29
2023-01-11T03:38:49.549Z,1.28
2023-01-11T03:41:22.803Z,1.20
2023-01-11T03:43:51.993Z,1.24
2023-01-11T03:46:31.343Z,1.08
2023-01-11T03:49:01.063Z,1.02
2023-01-11T03:51:33.979Z,1.02
2023-01-11T03:54:03.869Z,1.04
2023-01-11T03:56:44.952Z,1.01
2023-01-11T03:59:12.193Z,1.03
2023-01-11T04:01:39.479Z,1.22
2023-01-11T04:04:06.179Z,1.32
2023-01-11T04:06:36.234Z,1.42
2023-01-11T04:09:03.741Z,1.42
2023-01-11T04:11:30.608Z,1.53
2023-01-11T04:13:57.209Z,1.52
2023-01-11T04:16:23.825Z,1.59
2023-01-11T04:18:50.463Z,1.58
2023-01-11T04:21:17.152Z,1.60
2023-01-11T04:23:43.791Z,1.77
2023-01-11T04:26:10.421Z,1.67
2023-01-11T04:28:37.005Z,1.75
2023-01-11T04:31:03.792Z,1.63
2023-01-11T04:33:30.476Z,1.67
2023-01-11T04:35:57.059Z,1.59
2023-01-11T04:38:25.138Z,1.54
2023-01-11T04:41:11.701Z,1.77
2023-01-11T04:43:38.264Z,2.00
2023-01-11T04:46:05.061Z,2.11
2023-01-11T04:48:33.449Z,2.04
2023-01-11T04:51:00.043Z,2.26
2023-01-11T04:53:26.670Z,2.32
2023-01-11T04:55:53.663Z,2.33
2023-01-11T04:58:20.258Z,2.31
2023-01-11T05:00:46.858Z,1.97
2023-01-11T05:03:13.505Z,1.73
2023-01-11T05:05:40.104Z,2.04
2023-01-11T05:08:06.739Z,1.98
2023-01-11T05:10:33.439Z,1.97
2023-01-11T05:13:00.010Z,2.05
2023-01-11T05:15:26.599Z,2.06
2023-01-11T05:17:53.208Z,2.12
2023-01-11T05:20:19.820Z,2.33
2023-01-11T05:22:46.570Z,2.31
2023-01-11T05:25:13.144Z,1.98
2023-01-11T05:27:39.782Z,2.19
2023-01-11T05:30:07.085Z,2.43
2023-01-11T05:32:33.717Z,2.37
2023-01-11T05:35:00.292Z,2.33
2023-01-11T05:37:26.902Z,2.54
2023-01-11T05:39:53.507Z,2.69
2023-01-11T05:42:20.189Z,2.51
2023-01-11T05:45:05.127Z,2.56
2023-01-11T05:47:31.847Z,2.74
2023-01-11T05:49:58.416Z,2.83
2023-01-11T05:52:25.008Z,2.81
2023-01-11T05:54:51.597Z,2.81
2023-01-11T05:57:18.195Z,2.68
2023-01-11T05:59:44.775Z,2.73
2023-01-11T06:02:11.493Z,2.71
2023-01-11T06:04:38.193Z,2.82
2023-01-11T06:07:04.853Z,2.62
2023-01-11T06:09:31.509Z,2.61
2023-01-11T06:11:58.072Z,2.82
2023-01-11T06:14:24.677Z,2.95
2023-01-11T06:16:51.316Z,2.94
2023-01-11T06:19:17.961Z,2.96
2023-01-11T06:21:44.611Z,3.07
2023-01-11T06:24:11.217Z,3.11
2023-01-11T06:26:37.952Z,2.87
2023-01-11T06:29:04.555Z,2.65
2023-01-11T06:31:31.131Z,2.92
2023-01-11T06:33:57.759Z,3.13
2023-01-11T06:36:24.336Z,3.22
2023-01-11T06:38:52.376Z,3.33
2023-01-11T06:41:19.147Z,3.29
2023-01-11T06:43:46.557Z,3.37
2023-01-11T06:46:15.703Z,3.42
2023-01-11T06:48:43.298Z,3.39
2023-01-11T06:51:12.021Z,3.44
2023-01-11T06:53:39.959Z,3.32
2023-01-11T06:56:06.903Z,3.09
2023-01-11T06:58:33.540Z,3.21
2023-01-11T07:01:00.347Z,3.17
2023-01-11T07:03:27.480Z,3.26
2023-01-11T07:05:56.839Z,3.28
2023-01-11T07:08:25.430Z,3.11
2023-01-11T07:10:52.555Z,3.13
2023-01-11T07:13:19.511Z,3.26
2023-01-11T07:15:50.990Z,3.19
2023-01-11T07:18:19.059Z,3.16
2023-01-11T07:20:46.232Z,3.38
2023-01-11T07:23:13.010Z,3.39
2023-01-11T07:25:39.822Z,3.45
2023-01-11T07:28:08.384Z,3.48
2023-01-11T07:30:55.557Z,3.21
2023-01-11T07:33:23.315Z,3.04
2023-01-11T07:35:50.027Z,3.12
2023-01-11T07:38:16.797Z,3.19
2023-01-11T07:40:43.489Z,3.11
2023-01-11T07:43:15.039Z,2.98
2023-01-11T07:45:48.887Z,3.28
2023-01-11T07:48:20.977Z,3.33
2023-01-11T07:50:48.789Z,3.39
2023-01-11T07:53:15.681Z,3.46
2023-01-11T07:55:42.704Z,3.47
2023-01-11T07:58:12.708Z,3.39
2023-01-11T08:00:41.159Z,3.47
2023-01-11T08:03:08.336Z,3.47
2023-01-11T08:05:35.068Z,3.58
2023-01-11T08:08:01.990Z,3.66
2023-01-11T08:10:28.639Z,3.61
2023-01-11T08:13:14.053Z,3.56
2023-01-11T08:15:43.567Z,3.58
2023-01-11T08:18:11.846Z,3.61
2023-01-11T08:20:39.540Z,3.74
2023-01-11T08:23:08.395Z,3.78
2023-01-11T08:25:35.444Z,3.76
2023-01-11T08:28:04.318Z,3.71
2023-01-11T08:30:31.227Z,3.94
2023-01-11T08:33:00.802Z,3.98
2023-01-11T08:35:27.560Z,4.09
2023-01-11T08:37:54.239Z,4.20
2023-01-11T08:40:23.726Z,4.26
2023-01-11T08:42:55.015Z,4.52
2023-01-11T08:45:22.196Z,4.48
2023-01-11T08:47:50.835Z,4.51
2023-01-11T08:50:18.716Z,4.66
2023-01-11T08:52:46.207Z,4.73
2023-01-11T08:55:12.841Z,4.91
2023-01-11T08:57:39.592Z,5.01
2023-01-11T09:00:07.940Z,5.00
2023-01-11T09:02:34.640Z,5.10
2023-01-11T09:05:01.296Z,5.08
2023-01-11T09:07:27.976Z,4.95
2023-01-11T09:09:54.576Z,5.14
2023-01-11T09:12:21.322Z,5.33
2023-01-11T09:14:47.893Z,5.45
2023-01-11T09:17:14.495Z,5.53
2023-01-11T09:19:41.130Z,5.67
2023-01-11T09:22:07.709Z,5.67
2023-01-11T09:24:34.331Z,5.84
2023-01-11T09:27:01.235Z,5.79
2023-01-11T09:29:27.929Z,5.69
2023-01-11T09:31:54.622Z,5.71
2023-01-11T09:34:21.673Z,5.75
2023-01-11T09:36:48.993Z,5.69
2023-01-11T09:39:18.836Z,5.45
2023-01-11T09:42:05.383Z,5.39
2023-01-11T09:44:36.666Z,5.46
2023-01-11T09:47:28.773Z,5.55
2023-01-11T09:50:00.423Z,5.64
2023-01-11T09:52:38.390Z,5.79
2023-01-11T09:55:06.171Z,5.71
2023-01-11T09:58:11.111Z,5.63
2023-01-11T10:01:01.130Z,6.16
2023-01-11T10:03:38.909Z,6.25
2023-01-11T10:06:32.937Z,6.37
2023-01-11T10:18:31.138Z,6.71
2023-01-11T10:21:33.426Z,6.71
2023-01-11T10:24:29.509Z,6.83
2023-01-11T10:26:58.880Z,6.55
2023-01-11T10:29:53.198Z,6.58
2023-01-11T10:32:54.135Z,6.61
2023-01-11T10:36:00.356Z,6.68
2023-01-11T10:38:57.471Z,6.72
2023-01-11T10:41:38.815Z,6.61
2023-01-11T10:44:08.438Z,6.80
2023-01-11T10:46:39.992Z,6.57
2023-01-11T10:49:21.534Z,6.71
2023-01-11T10:51:49.594Z,6.86
2023-01-11T10:54:22.174Z,6.89
2023-01-11T10:57:11.382Z,6.87
2023-01-11T10:59:51.010Z,7.08
2023-01-11T11:02:47.029Z,7.11
2023-01-11T11:05:41.524Z,7.25
2023-01-11T11:08:26.440Z,7.31
2023-01-11T11:11:03.181Z,7.07
2023-01-11T11:13:38.414Z,7.27
2023-01-11T11:16:23.191Z,7.42
2023-01-11T11:18:52.027Z,7.33
2023-01-11T11:21:25.623Z,7.52
2023-01-11T11:23:58.651Z,7.63
2023-01-11T11:26:30.941Z,7.64
2023-01-11T11:29:10.104Z,7.66
2023-01-11T11:31:42.916Z,7.62
2023-01-11T11:34:19.228Z,7.68
2023-01-11T11:36:48.996Z,7.78
2023-01-11T11:39:32.571Z,8.03
2023-01-11T11:42:08.848Z,7.95
2023-01-11T11:44:35.571Z,7.89
2023-01-11T11:47:22.403Z,8.11
2023-01-11T11:49:48.986Z,8.03
2023-01-11T11:52:17.857Z,8.17
2023-01-11T11:54:57.598Z,8.23
2023-01-11T11:57:28.569Z,8.03
2023-01-11T12:00:09.114Z,8.18
2023-01-11T12:02:43.722Z,8.13
2023-01-11T12:05:11.103Z,8.14
2023-01-11T12:07:54.347Z,8.12
2023-01-11T12:10:24.244Z,7.85
2023-01-11T12:12:58.994Z,7.71
2023-01-11T12:15:33.816Z,7.83
2023-01-11T12:18:25.113Z,7.87
2023-01-11T12:20:52.149Z,7.85
2023-01-11T12:23:25.082Z,8.06
2023-01-11T12:26:13.475Z,7.90
2023-01-11T12:28:51.877Z,7.84
2023-01-11T12:31:52.587Z,7.83
2023-01-11T12:34:53.223Z,7.85
2023-01-11T12:37:25.759Z,7.79
2023-01-11T12:39:52.286Z,7.78
2023-01-11T12:42:24.480Z,7.67
2023-01-11T12:45:00.029Z,7.79
2023-01-11T12:47:44.472Z,7.87
2023-01-11T12:50:30.504Z,7.97
2023-01-11T12:53:31.119Z,8.05
2023-01-11T12:56:33.155Z,8.09
2023-01-11T12:59:07.296Z,7.99
2023-01-11T13:02:08.302Z,7.97
2023-01-11T13:05:13.504Z,8.02
2023-01-11T13:07:56.711Z,7.98
2023-01-11T13:10:32.615Z,8.24
2023-01-11T13:13:22.899Z,8.46
2023-01-11T13:16:19.771Z,8.38
2023-01-11T13:18:59.178Z,8.36
2023-01-11T13:21:33.883Z,8.33
2023-01-11T13:24:13.595Z,8.46
2023-01-11T13:26:45.682Z,8.56
2023-01-11T13:29:37.891Z,8.60
2023-01-11T13:32:08.776Z,8.55
2023-01-11T13:34:45.375Z,8.50
2023-01-11T13:37:19.913Z,8.59
2023-01-11T13:40:02.086Z,8.60
2023-01-11T13:42:34.109Z,8.56
2023-01-11T13:45:10.723Z,8.60
2023-01-11T13:47:44.978Z,8.65
2023-01-11T13:50:23.594Z,8.83
2023-01-11T13:53:09.975Z,8.92
2023-01-11T13:55:39.549Z,8.94
2023-01-11T13:58:10.647Z,8.90
2023-01-11T14:00:59.968Z,9.05
2023-01-11T14:03:51.732Z,9.13
2023-01-11T14:06:37.361Z,9.09
2023-01-11T14:09:18.440Z,9.23
2023-01-11T14:11:52.862Z,9.20
2023-01-11T14:14:48.291Z,9.36
2023-01-11T14:17:36.659Z,9.37
2023-01-11T14:20:18.512Z,9.33
2023-01-11T14:22:58.870Z,9.46
2023-01-11T14:25:36.612Z,9.44
2023-01-11T14:28:15.276Z,9.34
2023-01-11T14:30:55.200Z,9.28
2023-01-11T14:33:53.071Z,9.35
2023-01-11T14:36:28.579Z,9.36
2023-01-11T14:39:29.213Z,9.40
2023-01-11T14:42:31.069Z,9.16
2023-01-11T14:45:16.933Z,9.14
2023-01-11T14:47:52.322Z,9.02
2023-01-11T14:50:50.512Z,9.04
2023-01-11T14:53:23.631Z,9.25
2023-01-11T14:55:50.404Z,8.96
2023-01-11T14:58:29.062Z,8.77
2023-01-11T15:00:55.583Z,8.84
2023-01-11T15:03:22.104Z,8.85
2023-01-11T15:05:54.443Z,8.83
2023-01-11T15:08:27.390Z,8.82
2023-01-11T15:11:07.764Z,8.62
2023-01-11T15:13:43.147Z,8.40
2023-01-11T15:16:34.006Z,8.65
2023-01-11T15:19:06.101Z,8.60
2023-01-11T15:21:40.784Z,8.65
2023-01-11T15:24:21.956Z,8.33
2023-01-11T15:26:49.756Z,7.86
2023-01-11T15:29:32.745Z,7.34
2023-01-11T15:32:06.968Z,7.68
2023-01-11T15:34:41.525Z,8.01
2023-01-11T15:37:19.964Z,8.37
2023-01-11T15:40:14.120Z,8.46
2023-01-11T15:43:02.461Z,7.93
2023-01-11T15:46:12.340Z,8.04
2023-01-11T15:49:03.693Z,8.06
2023-01-11T15:51:48.909Z,7.88
2023-01-11T15:54:37.915Z,8.09
2023-01-11T15:57:17.009Z,8.07
2023-01-11T16:00:19.486Z,8.22
2023-01-11T16:03:20.064Z,8.33
2023-01-11T16:05:57.708Z,8.19
2023-01-11T16:08:38.910Z,8.43
2023-01-11T16:11:19.945Z,8.39
2023-01-11T16:13:49.537Z,8.50
2023-01-11T16:16:29.445Z,8.70
2023-01-11T16:19:06.085Z,8.60
2023-01-11T16:21:36.183Z,8.69
2023-01-11T16:24:07.688Z,8.71
2023-01-11T16:26:37.873Z,8.83
2023-01-11T16:29:12.964Z,8.83
2023-01-11T16:31:58.166Z,8.80
2023-01-11T16:34:29.783Z,8.71
2023-01-11T16:36:57.789Z,8.76
2023-01-11T16:39:30.213Z,8.77
2023-01-11T16:41:59.600Z,8.73
2023-01-11T16:44:45.589Z,8.84
2023-01-11T16:47:13.649Z,8.71
2023-01-11T16:49:42.269Z,8.55
2023-01-11T16:52:26.996Z,8.79
2023-01-11T16:54:55.682Z,8.66
2023-01-11T16:57:29.090Z,8.58
2023-01-11T17:00:07.990Z,8.67
2023-01-11T17:02:38.019Z,8.65
2023-01-11T17:05:19.227Z,8.15
2023-01-11T17:07:45.981Z,8.26
2023-01-11T17:10:15.412Z,8.17
2023-01-11T17:12:46.461Z,8.41
2023-01-11T17:15:15.676Z,8.54
2023-01-11T17:17:42.427Z,8.32
2023-01-11T17:20:35.341Z,8.17
2023-01-11T17:23:02.007Z,7.65
2023-01-11T17:25:44.306Z,7.91
2023-01-11T17:28:19.970Z,8.06
2023-01-11T17:30:50.651Z,8.04
2023-01-11T17:33:29.406Z,8.12
2023-01-11T17:35:56.421Z,7.90
2023-01-11T17:38:25.811Z,8.05
2023-01-11T17:40:56.943Z,8.07
2023-01-11T17:43:45.084Z,7.81
2023-01-11T17:46:18.570Z,8.09
2023-01-11T17:49:20.928Z,7.93
2023-01-11T17:51:47.608Z,7.89
2023-01-11T17:54:23.989Z,7.75
2023-01-11T17:56:59.347Z,7.70
2023-01-11T17:59:27.883Z,7.78
2023-01-11T18:02:00.394Z,7.70
2023-01-11T18:04:27.971Z,7.60
2023-01-11T18:07:05.958Z,7.63
2023-01-11T18:09:37.412Z,7.63
2023-01-11T18:12:29.478Z,7.63
2023-01-11T18:15:01.116Z,7.57
2023-01-11T18:17:42.242Z,7.55
2023-01-11T18:20:14.974Z,7.55
2023-01-11T18:22:53.473Z,7.58
2023-01-11T18:25:24.903Z,7.58
2023-01-11T18:28:11.961Z,7.58
2023-01-11T18:30:46.609Z,7.53
2023-01-11T18:33:19.588Z,7.58
2023-01-11T18:35:49.480Z,7.56
2023-01-11T18:38:29.258Z,7.61
2023-01-11T18:40:58.546Z,7.62
2023-01-11T18:43:34.171Z,7.53
2023-01-11T18:46:00.830Z,7.60
2023-01-11T18:48:27.448Z,7.62
2023-01-11T18:50:54.618Z,7.58
2023-01-11T18:53:21.272Z,7.54
2023-01-11T18:55:47.854Z,7.53
2023-01-11T18:58:14.494Z,7.44
2023-01-11T19:00:41.711Z,7.36
2023-01-11T19:03:11.050Z,7.24
2023-01-11T19:05:37.728Z,7.20
2023-01-11T19:08:04.515Z,7.16
2023-01-11T19:10:31.103Z,7.17
2023-01-11T19:12:58.051Z,7.12
2023-01-11T19:15:25.143Z,7.27
2023-01-11T19:17:51.805Z,7.13
2023-01-11T19:20:18.458Z,7.21
2023-01-11T19:22:45.175Z,7.30
2023-01-11T19:25:11.913Z,7.28
2023-01-11T19:27:38.724Z,7.27
2023-01-11T19:30:06.598Z,7.26
2023-01-11T19:32:33.288Z,7.23
2023-01-11T19:35:00.045Z,7.36
2023-01-11T19:37:27.901Z,7.29
2023-01-11T19:39:54.534Z,7.34
2023-01-11T19:42:22.180Z,7.40
2023-01-11T19:44:48.865Z,7.28
2023-01-11T19:47:15.839Z,7.27
2023-01-11T19:49:43.649Z,7.40
2023-01-11T19:52:13.415Z,7.34
2023-01-11T19:54:43.885Z,7.37
2023-01-11T19:57:19.035Z,7.33
2023-01-11T19:59:46.460Z,7.47
2023-01-11T20:02:15.336Z,7.35
2023-01-11T20:04:42.135Z,7.27
2023-01-11T20:07:10.670Z,7.19
2023-01-11T20:09:38.094Z,7.35
2023-01-11T20:12:07.064Z,7.29
2023-01-11T20:14:34.392Z,7.20
2023-01-11T20:17:01.195Z,7.23
2023-01-11T20:19:28.047Z,7.23
2023-01-11T20:21:55.954Z,7.24
2023-01-11T20:24:28.408Z,7.32
2023-01-11T20:27:00.126Z,7.27
2023-01-11T20:29:26.784Z,7.05
2023-01-11T20:31:53.457Z,6.89
2023-01-11T20:34:20.755Z,6.80
2023-01-11T20:36:48.816Z,6.76
2023-01-11T20:39:15.693Z,6.73
2023-01-11T20:41:48.569Z,6.75
2023-01-11T20:44:16.957Z,6.73
2023-01-11T20:46:47.437Z,6.68
2023-01-11T20:49:15.182Z,6.74
2023-01-11T20:51:42.966Z,6.92
2023-01-11T20:54:10.015Z,6.96
2023-01-11T20:56:38.509Z,7.09
2023-01-11T20:59:07.553Z,6.87
2023-01-11T21:01:34.788Z,6.92
2023-01-11T21:04:06.723Z,6.85
2023-01-11T21:06:35.297Z,6.92
2023-01-11T21:09:02.773Z,7.10
2023-01-11T21:11:31.408Z,6.93
2023-01-11T21:14:01.859Z,6.77
2023-01-11T21:16:29.522Z,6.89
2023-01-11T21:19:01.694Z,6.97
2023-01-11T21:21:30.446Z,6.88
2023-01-11T21:23:59.679Z,7.00
2023-01-11T21:26:27.236Z,7.13
2023-01-11T21:28:55.855Z,7.25
2023-01-11T21:31:23.004Z,7.23
2023-01-11T21:33:50.389Z,7.17
2023-01-11T21:36:21.491Z,7.15
2023-01-11T21:38:48.263Z,6.78
2023-01-11T21:41:17.890Z,6.76
2023-01-11T21:43:45.067Z,6.71
2023-01-11T21:46:13.055Z,6.67
2023-01-11T21:48:39.782Z,6.67
2023-01-11T21:51:10.017Z,6.79
2023-01-11T21:53:36.994Z,6.73
2023-01-11T21:56:08.483Z,6.59
2023-01-11T21:58:35.776Z,6.59
2023-01-11T22:01:12.779Z,6.47
2023-01-11T22:03:42.294Z,6.53
2023-01-11T22:06:10.414Z,6.35
2023-01-11T22:08:39.522Z,6.52
2023-01-11T22:11:06.938Z,6.53
2023-01-11T22:13:35.416Z,6.31
2023-01-11T22:16:04.976Z,6.32
2023-01-11T22:18:32.160Z,6.42
2023-01-11T22:21:05.507Z,6.32
2023-01-11T22:23:32.171Z,6.25
2023-01-11T22:26:06.603Z,6.06
2023-01-11T22:28:53.167Z,6.08
2023-01-11T22:31:20.807Z,6.21
2023-01-11T22:33:47.597Z,6.51
2023-01-11T22:36:14.894Z,6.83
2023-01-11T22:38:41.918Z,6.83
2023-01-11T22:41:08.872Z,7.00
2023-01-11T22:43:35.552Z,7.14
2023-01-11T22:46:02.387Z,7.25
2023-01-11T22:48:31.445Z,7.39
2023-01-11T22:50:58.608Z,7.47
2023-01-11T22:53:25.242Z,7.60
2023-01-11T22:55:51.854Z,7.77
2023-01-11T22:58:18.427Z,7.84
2023-01-11T23:00:45.117Z,7.79
2023-01-11T23:03:11.781Z,7.84
2023-01-11T23:05:44.552Z,7.83
2023-01-11T23:08:11.185Z,7.73
2023-01-11T23:10:37.754Z,7.71
2023-01-11T23:13:22.519Z,7.87
2023-01-11T23:15:53.525Z,8.05
2023-01-11T23:18:20.412Z,8.10
2023-01-11T23:20:47.045Z,8.04
2023-01-11T23:23:13.768Z,7.49
2023-01-11T23:25:40.340Z,7.43
2023-01-11T23:28:06.987Z,7.84
2023-01-11T23:30:33.565Z,7.89
2023-01-11T23:33:00.162Z,7.83
2023-01-11T23:35:26.773Z,7.66
2023-01-11T23:37:54.740Z,7.70
2023-01-11T23:40:21.360Z,7.73
2023-01-11T23:42:47.960Z,7.93
2023-01-11T23:45:14.618Z,7.96
2023-01-11T23:47:41.220Z,7.96
2023-01-11T23:50:08.381Z,8.07
2023-01-11T23:52:35.109Z,7.82
2023-01-11T23:55:01.737Z,8.04
2023-01-11T23:57:28.357Z,8.14
2023-01-11T23:59:55.093Z,8.18
